sensor_id;sensor_type;location;lat;lon;timestamp;P1;durP1;ratioP1;P2;durP2;ratioP2
50821;SDS011;36794;51.212;6.980;2022-07-12T00:00:04;2.77;;;2.50;;
50821;SDS011;36794;51.212;6.980;2022-07-12T00:02:30;2.50;;;2.30;;
50821;SDS011;36794;51.212;6.980;2022-07-12T00:04:56;3.33;;;2.40;;
50821;SDS011;36794;51.212;6.980;2022-07-12T00:07:25;5.87;;;2.10;;
50821;SDS011;36794;51.212;6.980;2022-07-12T00:09:53;4.83;;;2.37;;
50821;SDS011;36794;51.212;6.980;2022-07-12T00:12:19;2.73;;;2.47;;
50821;SDS011;36794;51.212;6.980;2022-07-12T00:14:48;2.27;;;2.07;;
50821;SDS011;36794;51.212;6.980;2022-07-12T00:17:14;2.80;;;2.37;;
50821;SDS011;36794;51.212;6.980;2022-07-12T00:19:42;3.33;;;2.40;;
50821;SDS011;36794;51.212;6.980;2022-07-12T00:22:08;3.90;;;2.53;;
50821;SDS011;36794;51.212;6.980;2022-07-12T00:24:36;4.07;;;2.20;;
50821;SDS011;36794;51.212;6.980;2022-07-12T00:27:02;8.70;;;2.53;;
50821;SDS011;36794;51.212;6.980;2022-07-12T00:29:28;5.60;;;2.30;;
50821;SDS011;36794;51.212;6.980;2022-07-12T00:31:54;4.73;;;2.50;;
50821;SDS011;36794;51.212;6.980;2022-07-12T00:34:20;3.70;;;2.50;;
50821;SDS011;36794;51.212;6.980;2022-07-12T00:36:46;4.67;;;2.47;;
50821;SDS011;36794;51.212;6.980;2022-07-12T00:39:12;2.93;;;2.60;;
50821;SDS011;36794;51.212;6.980;2022-07-12T00:41:38;3.40;;;2.53;;
50821;SDS011;36794;51.212;6.980;2022-07-12T00:44:07;4.73;;;2.60;;
50821;SDS011;36794;51.212;6.980;2022-07-12T00:46:33;2.40;;;2.20;;
50821;SDS011;36794;51.212;6.980;2022-07-12T00:48:59;3.30;;;2.27;;
50821;SDS011;36794;51.212;6.980;2022-07-12T00:51:25;3.33;;;2.60;;
50821;SDS011;36794;51.212;6.980;2022-07-12T00:53:51;3.37;;;2.20;;
50821;SDS011;36794;51.212;6.980;2022-07-12T00:56:20;4.43;;;2.40;;
50821;SDS011;36794;51.212;6.980;2022-07-12T00:58:47;5.37;;;2.63;;
50821;SDS011;36794;51.212;6.980;2022-07-12T01:01:13;5.07;;;2.33;;
50821;SDS011;36794;51.212;6.980;2022-07-12T01:03:39;4.70;;;2.30;;
50821;SDS011;36794;51.212;6.980;2022-07-12T01:06:06;2.60;;;2.40;;
50821;SDS011;36794;51.212;6.980;2022-07-12T01:08:33;7.37;;;2.43;;
50821;SDS011;36794;51.212;6.980;2022-07-12T01:10:59;3.70;;;2.27;;
50821;SDS011;36794;51.212;6.980;2022-07-12T01:13:25;4.63;;;2.10;;
50821;SDS011;36794;51.212;6.980;2022-07-12T01:15:51;3.23;;;2.50;;
50821;SDS011;36794;51.212;6.980;2022-07-12T01:18:18;4.37;;;2.60;;
50821;SDS011;36794;51.212;6.980;2022-07-12T01:20:44;5.07;;;2.40;;
50821;SDS011;36794;51.212;6.980;2022-07-12T01:23:11;3.00;;;2.20;;
50821;SDS011;36794;51.212;6.980;2022-07-12T01:25:37;4.27;;;2.40;;
50821;SDS011;36794;51.212;6.980;2022-07-12T01:28:03;3.70;;;2.40;;
50821;SDS011;36794;51.212;6.980;2022-07-12T01:30:32;5.13;;;2.40;;
50821;SDS011;36794;51.212;6.980;2022-07-12T01:32:58;4.13;;;2.17;;
50821;SDS011;36794;51.212;6.980;2022-07-12T01:35:25;4.87;;;2.43;;
50821;SDS011;36794;51.212;6.980;2022-07-12T01:37:51;4.60;;;2.20;;
50821;SDS011;36794;51.212;6.980;2022-07-12T01:40:19;2.30;;;2.03;;
50821;SDS011;36794;51.212;6.980;2022-07-12T01:42:45;7.63;;;2.27;;
50821;SDS011;36794;51.212;6.980;2022-07-12T01:45:12;3.97;;;1.90;;
50821;SDS011;36794;51.212;6.980;2022-07-12T01:47:38;3.47;;;2.07;;
50821;SDS011;36794;51.212;6.980;2022-07-12T01:50:07;5.73;;;2.33;;
50821;SDS011;36794;51.212;6.980;2022-07-12T01:52:34;5.17;;;1.73;;
50821;SDS011;36794;51.212;6.980;2022-07-12T01:55:00;4.37;;;2.10;;
50821;SDS011;36794;51.212;6.980;2022-07-12T01:57:28;2.37;;;2.00;;
50821;SDS011;36794;51.212;6.980;2022-07-12T01:59:56;3.17;;;2.00;;
50821;SDS011;36794;51.212;6.980;2022-07-12T02:02:23;4.10;;;2.20;;
50821;SDS011;36794;51.212;6.980;2022-07-12T02:04:51;5.93;;;2.00;;
50821;SDS011;36794;51.212;6.980;2022-07-12T02:07:18;5.33;;;2.23;;
50821;SDS011;36794;51.212;6.980;2022-07-12T02:09:44;3.43;;;2.30;;
50821;SDS011;36794;51.212;6.980;2022-07-12T02:12:13;3.70;;;2.27;;
50821;SDS011;36794;51.212;6.980;2022-07-12T02:14:39;6.47;;;2.20;;
50821;SDS011;36794;51.212;6.980;2022-07-12T02:17:05;4.73;;;2.60;;
50821;SDS011;36794;51.212;6.980;2022-07-12T02:19:31;2.60;;;2.20;;
50821;SDS011;36794;51.212;6.980;2022-07-12T02:21:57;6.70;;;2.40;;
50821;SDS011;36794;51.212;6.980;2022-07-12T02:24:23;7.50;;;2.20;;
50821;SDS011;36794;51.212;6.980;2022-07-12T02:26:49;5.37;;;2.10;;
50821;SDS011;36794;51.212;6.980;2022-07-12T02:29:15;2.10;;;1.83;;
50821;SDS011;36794;51.212;6.980;2022-07-12T02:31:41;7.10;;;2.20;;
50821;SDS011;36794;51.212;6.980;2022-07-12T02:34:07;4.20;;;2.00;;
50821;SDS011;36794;51.212;6.980;2022-07-12T02:36:36;3.43;;;2.03;;
50821;SDS011;36794;51.212;6.980;2022-07-12T02:39:04;5.10;;;2.30;;
50821;SDS011;36794;51.212;6.980;2022-07-12T02:41:30;3.13;;;1.80;;
50821;SDS011;36794;51.212;6.980;2022-07-12T02:43:59;4.40;;;1.93;;
50821;SDS011;36794;51.212;6.980;2022-07-12T02:46:25;3.20;;;2.10;;
50821;SDS011;36794;51.212;6.980;2022-07-12T02:48:55;3.10;;;2.00;;
50821;SDS011;36794;51.212;6.980;2022-07-12T02:51:21;6.57;;;2.10;;
50821;SDS011;36794;51.212;6.980;2022-07-12T02:53:49;5.27;;;2.20;;
50821;SDS011;36794;51.212;6.980;2022-07-12T02:56:15;5.17;;;2.50;;
50821;SDS011;36794;51.212;6.980;2022-07-12T02:58:41;3.60;;;2.17;;
50821;SDS011;36794;51.212;6.980;2022-07-12T03:01:10;3.63;;;2.00;;
50821;SDS011;36794;51.212;6.980;2022-07-12T03:03:37;4.67;;;2.00;;
50821;SDS011;36794;51.212;6.980;2022-07-12T03:06:03;4.30;;;2.03;;
50821;SDS011;36794;51.212;6.980;2022-07-12T03:08:29;5.93;;;2.10;;
50821;SDS011;36794;51.212;6.980;2022-07-12T03:10:55;4.50;;;2.17;;
50821;SDS011;36794;51.212;6.980;2022-07-12T03:13:21;5.20;;;2.60;;
50821;SDS011;36794;51.212;6.980;2022-07-12T03:15:47;2.77;;;2.30;;
50821;SDS011;36794;51.212;6.980;2022-07-12T03:18:15;3.80;;;2.10;;
50821;SDS011;36794;51.212;6.980;2022-07-12T03:20:43;3.50;;;2.10;;
50821;SDS011;36794;51.212;6.980;2022-07-12T03:23:09;3.20;;;2.30;;
50821;SDS011;36794;51.212;6.980;2022-07-12T03:25:35;5.03;;;2.13;;
50821;SDS011;36794;51.212;6.980;2022-07-12T03:28:01;4.47;;;2.50;;
50821;SDS011;36794;51.212;6.980;2022-07-12T03:30:27;7.70;;;2.40;;
50821;SDS011;36794;51.212;6.980;2022-07-12T03:32:54;4.17;;;2.33;;
50821;SDS011;36794;51.212;6.980;2022-07-12T03:35:20;6.40;;;2.20;;
50821;SDS011;36794;51.212;6.980;2022-07-12T03:37:47;3.73;;;2.27;;
50821;SDS011;36794;51.212;6.980;2022-07-12T03:40:14;8.20;;;2.30;;
50821;SDS011;36794;51.212;6.980;2022-07-12T03:42:40;4.53;;;2.00;;
50821;SDS011;36794;51.212;6.980;2022-07-12T03:45:07;3.70;;;2.30;;
50821;SDS011;36794;51.212;6.980;2022-07-12T03:47:33;5.83;;;1.93;;
50821;SDS011;36794;51.212;6.980;2022-07-12T03:50:07;6.63;;;2.33;;
50821;SDS011;36794;51.212;6.980;2022-07-12T03:52:35;5.37;;;2.30;;
50821;SDS011;36794;51.212;6.980;2022-07-12T03:55:02;4.63;;;2.37;;
50821;SDS011;36794;51.212;6.980;2022-07-12T03:57:28;6.53;;;3.30;;
50821;SDS011;36794;51.212;6.980;2022-07-12T03:59:54;5.30;;;2.40;;
50821;SDS011;36794;51.212;6.980;2022-07-12T04:02:21;3.60;;;2.40;;
50821;SDS011;36794;51.212;6.980;2022-07-12T04:04:50;4.97;;;2.30;;
50821;SDS011;36794;51.212;6.980;2022-07-12T04:07:16;3.70;;;2.40;;
50821;SDS011;36794;51.212;6.980;2022-07-12T04:09:42;4.77;;;2.50;;
50821;SDS011;36794;51.212;6.980;2022-07-12T04:12:08;7.93;;;2.80;;
50821;SDS011;36794;51.212;6.980;2022-07-12T04:14:34;2.90;;;2.60;;
50821;SDS011;36794;51.212;6.980;2022-07-12T04:17:00;6.27;;;3.00;;
50821;SDS011;36794;51.212;6.980;2022-07-12T04:19:28;7.67;;;2.63;;
50821;SDS011;36794;51.212;6.980;2022-07-12T04:21:56;8.53;;;3.67;;
50821;SDS011;36794;51.212;6.980;2022-07-12T04:24:22;3.43;;;2.67;;
50821;SDS011;36794;51.212;6.980;2022-07-12T04:26:53;4.77;;;2.53;;
50821;SDS011;36794;51.212;6.980;2022-07-12T04:29:19;5.10;;;3.00;;
50821;SDS011;36794;51.212;6.980;2022-07-12T04:31:45;4.57;;;2.60;;
50821;SDS011;36794;51.212;6.980;2022-07-12T04:34:11;6.40;;;2.60;;
50821;SDS011;36794;51.212;6.980;2022-07-12T04:36:42;6.13;;;2.87;;
50821;SDS011;36794;51.212;6.980;2022-07-12T04:39:08;4.53;;;2.73;;
50821;SDS011;36794;51.212;6.980;2022-07-12T04:41:34;6.83;;;2.73;;
50821;SDS011;36794;51.212;6.980;2022-07-12T04:44:02;7.70;;;2.60;;
50821;SDS011;36794;51.212;6.980;2022-07-12T04:46:29;5.97;;;2.80;;
50821;SDS011;36794;51.212;6.980;2022-07-12T04:48:55;8.50;;;3.27;;
50821;SDS011;36794;51.212;6.980;2022-07-12T04:51:21;4.27;;;2.37;;
50821;SDS011;36794;51.212;6.980;2022-07-12T04:53:49;9.33;;;3.10;;
50821;SDS011;36794;51.212;6.980;2022-07-12T04:56:17;8.43;;;2.77;;
50821;SDS011;36794;51.212;6.980;2022-07-12T04:58:43;7.47;;;2.77;;
50821;SDS011;36794;51.212;6.980;2022-07-12T05:01:09;8.93;;;2.83;;
50821;SDS011;36794;51.212;6.980;2022-07-12T05:03:35;9.60;;;3.20;;
50821;SDS011;36794;51.212;6.980;2022-07-12T05:06:01;5.57;;;2.93;;
50821;SDS011;36794;51.212;6.980;2022-07-12T05:08:29;5.27;;;2.90;;
50821;SDS011;36794;51.212;6.980;2022-07-12T05:10:55;5.43;;;3.17;;
50821;SDS011;36794;51.212;6.980;2022-07-12T05:13:21;8.73;;;2.70;;
50821;SDS011;36794;51.212;6.980;2022-07-12T05:15:47;5.47;;;2.80;;
50821;SDS011;36794;51.212;6.980;2022-07-12T05:18:13;9.17;;;3.53;;
50821;SDS011;36794;51.212;6.980;2022-07-12T05:20:39;10.33;;;3.30;;
50821;SDS011;36794;51.212;6.980;2022-07-12T05:23:07;12.33;;;3.37;;
50821;SDS011;36794;51.212;6.980;2022-07-12T05:25:33;7.95;;;3.22;;
50821;SDS011;36794;51.212;6.980;2022-07-12T05:27:59;8.63;;;3.17;;
50821;SDS011;36794;51.212;6.980;2022-07-12T05:30:25;15.60;;;3.42;;
50821;SDS011;36794;51.212;6.980;2022-07-12T05:32:51;23.88;;;4.50;;
50821;SDS011;36794;51.212;6.980;2022-07-12T05:35:17;7.35;;;3.13;;
50821;SDS011;36794;51.212;6.980;2022-07-12T05:37:43;8.15;;;3.53;;
50821;SDS011;36794;51.212;6.980;2022-07-12T05:40:09;7.78;;;2.97;;
50821;SDS011;36794;51.212;6.980;2022-07-12T05:42:35;10.13;;;3.30;;
50821;SDS011;36794;51.212;6.980;2022-07-12T05:45:02;5.68;;;3.28;;
50821;SDS011;36794;51.212;6.980;2022-07-12T05:47:28;11.05;;;3.35;;
50821;SDS011;36794;51.212;6.980;2022-07-12T05:49:54;7.82;;;3.33;;
50821;SDS011;36794;51.212;6.980;2022-07-12T05:52:20;9.50;;;3.58;;
50821;SDS011;36794;51.212;6.980;2022-07-12T05:55:04;9.73;;;4.00;;
50821;SDS011;36794;51.212;6.980;2022-07-12T05:57:31;7.07;;;4.28;;
50821;SDS011;36794;51.212;6.980;2022-07-12T05:59:59;8.00;;;5.68;;
50821;SDS011;36794;51.212;6.980;2022-07-12T06:02:25;6.57;;;5.63;;
50821;SDS011;36794;51.212;6.980;2022-07-12T06:04:51;10.93;;;4.80;;
50821;SDS011;36794;51.212;6.980;2022-07-12T06:07:17;9.65;;;4.30;;
50821;SDS011;36794;51.212;6.980;2022-07-12T06:09:43;5.97;;;4.50;;
50821;SDS011;36794;51.212;6.980;2022-07-12T06:12:09;8.10;;;4.40;;
50821;SDS011;36794;51.212;6.980;2022-07-12T06:14:35;8.32;;;4.20;;
50821;SDS011;36794;51.212;6.980;2022-07-12T06:17:01;5.65;;;4.43;;
50821;SDS011;36794;51.212;6.980;2022-07-12T06:19:27;5.40;;;4.07;;
50821;SDS011;36794;51.212;6.980;2022-07-12T06:21:56;7.00;;;3.45;;
50821;SDS011;36794;51.212;6.980;2022-07-12T06:24:22;6.18;;;3.47;;
50821;SDS011;36794;51.212;6.980;2022-07-12T06:26:48;5.15;;;3.30;;
50821;SDS011;36794;51.212;6.980;2022-07-12T06:29:14;5.97;;;3.20;;
50821;SDS011;36794;51.212;6.980;2022-07-12T06:31:42;5.93;;;3.63;;
50821;SDS011;36794;51.212;6.980;2022-07-12T06:34:09;5.15;;;3.25;;
50821;SDS011;36794;51.212;6.980;2022-07-12T06:36:35;4.38;;;3.17;;
50821;SDS011;36794;51.212;6.980;2022-07-12T06:39:01;8.30;;;2.90;;
50821;SDS011;36794;51.212;6.980;2022-07-12T06:41:27;7.53;;;3.80;;
50821;SDS011;36794;51.212;6.980;2022-07-12T06:43:54;5.38;;;3.13;;
50821;SDS011;36794;51.212;6.980;2022-07-12T06:46:20;5.45;;;3.33;;
50821;SDS011;36794;51.212;6.980;2022-07-12T06:48:46;4.85;;;2.78;;
50821;SDS011;36794;51.212;6.980;2022-07-12T06:51:12;6.45;;;3.00;;
50821;SDS011;36794;51.212;6.980;2022-07-12T06:53:38;4.72;;;2.85;;
50821;SDS011;36794;51.212;6.980;2022-07-12T06:56:04;5.35;;;2.88;;
50821;SDS011;36794;51.212;6.980;2022-07-12T06:58:30;3.95;;;2.60;;
50821;SDS011;36794;51.212;6.980;2022-07-12T07:00:56;4.10;;;2.60;;
50821;SDS011;36794;51.212;6.980;2022-07-12T07:03:22;4.78;;;2.88;;
50821;SDS011;36794;51.212;6.980;2022-07-12T07:05:50;5.43;;;2.72;;
50821;SDS011;36794;51.212;6.980;2022-07-12T07:08:16;3.58;;;2.60;;
50821;SDS011;36794;51.212;6.980;2022-07-12T07:10:42;3.97;;;2.80;;
50821;SDS011;36794;51.212;6.980;2022-07-12T07:13:08;5.03;;;2.70;;
50821;SDS011;36794;51.212;6.980;2022-07-12T07:15:35;4.28;;;2.28;;
50821;SDS011;36794;51.212;6.980;2022-07-12T07:18:01;3.90;;;3.10;;
50821;SDS011;36794;51.212;6.980;2022-07-12T07:20:29;5.15;;;2.80;;
50821;SDS011;36794;51.212;6.980;2022-07-12T07:22:55;5.88;;;2.72;;
50821;SDS011;36794;51.212;6.980;2022-07-12T07:25:21;4.00;;;2.80;;
50821;SDS011;36794;51.212;6.980;2022-07-12T07:27:50;4.90;;;3.70;;
50821;SDS011;36794;51.212;6.980;2022-07-12T07:30:16;5.10;;;3.15;;
50821;SDS011;36794;51.212;6.980;2022-07-12T07:33:00;7.53;;;3.67;;
50821;SDS011;36794;51.212;6.980;2022-07-12T07:35:26;4.88;;;3.75;;
50821;SDS011;36794;51.212;6.980;2022-07-12T07:37:52;5.40;;;3.83;;
50821;SDS011;36794;51.212;6.980;2022-07-12T07:40:18;6.20;;;3.67;;
50821;SDS011;36794;51.212;6.980;2022-07-12T07:42:44;5.97;;;3.40;;
50821;SDS011;36794;51.212;6.980;2022-07-12T07:45:10;3.90;;;3.50;;
50821;SDS011;36794;51.212;6.980;2022-07-12T07:47:48;3.88;;;3.47;;
50821;SDS011;36794;51.212;6.980;2022-07-12T07:50:14;4.28;;;3.50;;
50821;SDS011;36794;51.212;6.980;2022-07-12T07:52:41;5.65;;;4.20;;
50821;SDS011;36794;51.212;6.980;2022-07-12T07:55:07;8.05;;;4.38;;
50821;SDS011;36794;51.212;6.980;2022-07-12T07:57:33;5.70;;;4.38;;
50821;SDS011;36794;51.212;6.980;2022-07-12T07:59:59;7.65;;;4.10;;
50821;SDS011;36794;51.212;6.980;2022-07-12T08:02:28;9.15;;;4.38;;
50821;SDS011;36794;51.212;6.980;2022-07-12T08:04:54;9.38;;;5.95;;
50821;SDS011;36794;51.212;6.980;2022-07-12T08:07:23;5.90;;;4.40;;
50821;SDS011;36794;51.212;6.980;2022-07-12T08:09:49;4.95;;;4.10;;
50821;SDS011;36794;51.212;6.980;2022-07-12T08:12:15;7.15;;;4.10;;
50821;SDS011;36794;51.212;6.980;2022-07-12T08:14:41;5.97;;;4.28;;
50821;SDS011;36794;51.212;6.980;2022-07-12T08:17:07;6.22;;;3.65;;
50821;SDS011;36794;51.212;6.980;2022-07-12T08:19:33;7.20;;;4.80;;
50821;SDS011;36794;51.212;6.980;2022-07-12T08:21:59;6.25;;;3.80;;
50821;SDS011;36794;51.212;6.980;2022-07-12T08:24:25;6.07;;;3.42;;
50821;SDS011;36794;51.212;6.980;2022-07-12T15:42:07;2.83;;;1.58;;
50821;SDS011;36794;51.212;6.980;2022-07-12T15:44:34;3.53;;;1.55;;
50821;SDS011;36794;51.212;6.980;2022-07-12T15:47:00;2.92;;;1.67;;
50821;SDS011;36794;51.212;6.980;2022-07-12T15:49:26;4.57;;;1.40;;
50821;SDS011;36794;51.212;6.980;2022-07-12T15:51:52;3.63;;;1.50;;
50821;SDS011;36794;51.212;6.980;2022-07-12T15:54:37;2.33;;;1.30;;
50821;SDS011;36794;51.212;6.980;2022-07-12T15:57:03;3.38;;;1.45;;
50821;SDS011;36794;51.212;6.980;2022-07-12T15:59:29;3.75;;;1.65;;
50821;SDS011;36794;51.212;6.980;2022-07-12T16:01:55;4.90;;;1.50;;
50821;SDS011;36794;51.212;6.980;2022-07-12T16:04:21;4.18;;;1.50;;
50821;SDS011;36794;51.212;6.980;2022-07-12T16:06:47;2.88;;;1.50;;
50821;SDS011;36794;51.212;6.980;2022-07-12T16:09:16;5.20;;;1.40;;
50821;SDS011;36794;51.212;6.980;2022-07-12T16:11:42;3.58;;;1.42;;
50821;SDS011;36794;51.212;6.980;2022-07-12T16:14:08;4.22;;;1.25;;
50821;SDS011;36794;51.212;6.980;2022-07-12T16:16:34;3.85;;;1.63;;
50821;SDS011;36794;51.212;6.980;2022-07-12T16:19:02;3.88;;;1.50;;
50821;SDS011;36794;51.212;6.980;2022-07-12T16:21:28;2.10;;;1.40;;
50821;SDS011;36794;51.212;6.980;2022-07-12T16:23:54;2.63;;;1.40;;
50821;SDS011;36794;51.212;6.980;2022-07-12T16:26:20;3.92;;;1.50;;
50821;SDS011;36794;51.212;6.980;2022-07-12T16:28:45;5.28;;;1.95;;
50821;SDS011;36794;51.212;6.980;2022-07-12T16:31:11;4.30;;;1.60;;
50821;SDS011;36794;51.212;6.980;2022-07-12T16:33:37;5.13;;;1.70;;
50821;SDS011;36794;51.212;6.980;2022-07-12T16:36:03;5.68;;;1.92;;
50821;SDS011;36794;51.212;6.980;2022-07-12T16:38:30;2.22;;;1.27;;
50821;SDS011;36794;51.212;6.980;2022-07-12T16:40:56;3.42;;;1.33;;
50821;SDS011;36794;51.212;6.980;2022-07-12T16:43:22;3.08;;;1.70;;
50821;SDS011;36794;51.212;6.980;2022-07-12T16:45:48;2.45;;;1.55;;
50821;SDS011;36794;51.212;6.980;2022-07-12T16:48:14;4.70;;;1.45;;
50821;SDS011;36794;51.212;6.980;2022-07-12T16:50:40;4.18;;;1.45;;
50821;SDS011;36794;51.212;6.980;2022-07-12T16:53:06;3.53;;;1.23;;
50821;SDS011;36794;51.212;6.980;2022-07-12T16:55:33;2.55;;;1.33;;
50821;SDS011;36794;51.212;6.980;2022-07-12T16:58:00;2.65;;;1.38;;
50821;SDS011;36794;51.212;6.980;2022-07-12T17:00:26;4.97;;;1.77;;
50821;SDS011;36794;51.212;6.980;2022-07-12T17:02:52;3.33;;;1.48;;
50821;SDS011;36794;51.212;6.980;2022-07-12T17:05:18;4.53;;;1.50;;
50821;SDS011;36794;51.212;6.980;2022-07-12T17:07:44;3.80;;;1.40;;
50821;SDS011;36794;51.212;6.980;2022-07-12T17:10:10;4.35;;;1.30;;
50821;SDS011;36794;51.212;6.980;2022-07-12T17:12:36;3.35;;;1.30;;
50821;SDS011;36794;51.212;6.980;2022-07-12T17:15:02;3.35;;;1.38;;
50821;SDS011;36794;51.212;6.980;2022-07-12T17:17:29;3.20;;;1.52;;
50821;SDS011;36794;51.212;6.980;2022-07-12T17:19:55;2.67;;;1.52;;
50821;SDS011;36794;51.212;6.980;2022-07-12T17:22:21;2.35;;;1.60;;
50821;SDS011;36794;51.212;6.980;2022-07-12T17:24:48;4.90;;;1.45;;
50821;SDS011;36794;51.212;6.980;2022-07-12T17:27:14;6.68;;;1.60;;
50821;SDS011;36794;51.212;6.980;2022-07-12T17:29:40;3.97;;;1.75;;
50821;SDS011;36794;51.212;6.980;2022-07-12T17:32:06;2.20;;;1.30;;
50821;SDS011;36794;51.212;6.980;2022-07-12T17:34:32;5.13;;;1.60;;
50821;SDS011;36794;51.212;6.980;2022-07-12T17:36:58;2.50;;;1.60;;
50821;SDS011;36794;51.212;6.980;2022-07-12T17:39:25;2.28;;;1.45;;
50821;SDS011;36794;51.212;6.980;2022-07-12T17:41:51;2.92;;;1.63;;
50821;SDS011;36794;51.212;6.980;2022-07-12T17:44:17;6.13;;;1.60;;
50821;SDS011;36794;51.212;6.980;2022-07-12T17:46:46;3.72;;;1.60;;
50821;SDS011;36794;51.212;6.980;2022-07-12T17:49:13;4.28;;;1.55;;
50821;SDS011;36794;51.212;6.980;2022-07-12T17:51:39;3.58;;;1.50;;
50821;SDS011;36794;51.212;6.980;2022-07-12T17:54:05;6.00;;;1.70;;
50821;SDS011;36794;51.212;6.980;2022-07-12T17:56:31;3.05;;;1.52;;
50821;SDS011;36794;51.212;6.980;2022-07-12T17:58:57;4.68;;;1.65;;
50821;SDS011;36794;51.212;6.980;2022-07-12T18:01:23;2.92;;;1.60;;
50821;SDS011;36794;51.212;6.980;2022-07-12T18:03:50;5.70;;;1.60;;
50821;SDS011;36794;51.212;6.980;2022-07-12T18:06:17;2.80;;;1.52;;
50821;SDS011;36794;51.212;6.980;2022-07-12T18:08:43;3.92;;;1.80;;
50821;SDS011;36794;51.212;6.980;2022-07-12T18:11:09;6.47;;;1.70;;
50821;SDS011;36794;51.212;6.980;2022-07-12T18:13:54;2.97;;;1.50;;
50821;SDS011;36794;51.212;6.980;2022-07-12T18:16:39;6.28;;;1.55;;
50821;SDS011;36794;51.212;6.980;2022-07-12T18:19:06;4.13;;;1.80;;
50821;SDS011;36794;51.212;6.980;2022-07-12T18:21:35;6.88;;;1.80;;
50821;SDS011;36794;51.212;6.980;2022-07-12T18:24:01;4.22;;;1.80;;
50821;SDS011;36794;51.212;6.980;2022-07-12T18:26:27;7.53;;;1.85;;
50821;SDS011;36794;51.212;6.980;2022-07-12T18:28:54;4.60;;;1.88;;
50821;SDS011;36794;51.212;6.980;2022-07-12T18:31:19;7.63;;;1.95;;
50821;SDS011;36794;51.212;6.980;2022-07-12T18:33:48;5.75;;;1.98;;
50821;SDS011;36794;51.212;6.980;2022-07-12T18:36:15;4.70;;;1.80;;
50821;SDS011;36794;51.212;6.980;2022-07-12T18:38:41;4.85;;;1.75;;
50821;SDS011;36794;51.212;6.980;2022-07-12T18:41:07;5.50;;;2.03;;
50821;SDS011;36794;51.212;6.980;2022-07-12T18:43:33;13.02;;;2.08;;
50821;SDS011;36794;51.212;6.980;2022-07-12T18:46:00;4.85;;;1.85;;
50821;SDS011;36794;51.212;6.980;2022-07-12T18:48:26;6.28;;;2.38;;
50821;SDS011;36794;51.212;6.980;2022-07-12T18:50:57;3.63;;;1.85;;
50821;SDS011;36794;51.212;6.980;2022-07-12T18:53:23;3.53;;;1.85;;
50821;SDS011;36794;51.212;6.980;2022-07-12T18:55:49;6.20;;;1.95;;
50821;SDS011;36794;51.212;6.980;2022-07-12T18:58:15;8.65;;;2.22;;
50821;SDS011;36794;51.212;6.980;2022-07-12T19:00:43;3.92;;;1.73;;
50821;SDS011;36794;51.212;6.980;2022-07-12T19:03:09;8.70;;;1.92;;
50821;SDS011;36794;51.212;6.980;2022-07-12T19:05:35;4.63;;;1.92;;
50821;SDS011;36794;51.212;6.980;2022-07-12T19:08:01;8.30;;;2.08;;
50821;SDS011;36794;51.212;6.980;2022-07-12T19:10:27;4.22;;;1.60;;
50821;SDS011;36794;51.212;6.980;2022-07-12T19:12:53;4.07;;;1.98;;
50821;SDS011;36794;51.212;6.980;2022-07-12T19:15:19;3.60;;;1.98;;
50821;SDS011;36794;51.212;6.980;2022-07-12T19:17:45;4.72;;;1.80;;
50821;SDS011;36794;51.212;6.980;2022-07-12T19:20:11;5.30;;;2.10;;
50821;SDS011;36794;51.212;6.980;2022-07-12T19:22:39;5.35;;;2.13;;
50821;SDS011;36794;51.212;6.980;2022-07-12T19:25:08;2.38;;;1.98;;
50821;SDS011;36794;51.212;6.980;2022-07-12T19:27:35;2.78;;;1.77;;
50821;SDS011;36794;51.212;6.980;2022-07-12T19:30:01;2.40;;;1.75;;
50821;SDS011;36794;51.212;6.980;2022-07-12T19:32:27;3.22;;;2.17;;
50821;SDS011;36794;51.212;6.980;2022-07-12T19:34:53;5.45;;;2.08;;
50821;SDS011;36794;51.212;6.980;2022-07-12T19:37:19;3.40;;;1.80;;
50821;SDS011;36794;51.212;6.980;2022-07-12T19:39:45;7.50;;;2.67;;
50821;SDS011;36794;51.212;6.980;2022-07-12T19:42:11;7.55;;;2.20;;
50821;SDS011;36794;51.212;6.980;2022-07-12T19:44:37;3.85;;;2.20;;
50821;SDS011;36794;51.212;6.980;2022-07-12T19:47:03;3.40;;;2.38;;
50821;SDS011;36794;51.212;6.980;2022-07-12T19:49:29;3.47;;;2.10;;
50821;SDS011;36794;51.212;6.980;2022-07-12T19:51:55;7.10;;;2.17;;
50821;SDS011;36794;51.212;6.980;2022-07-12T19:54:21;3.47;;;2.33;;
50821;SDS011;36794;51.212;6.980;2022-07-12T19:56:48;4.78;;;2.33;;
50821;SDS011;36794;51.212;6.980;2022-07-12T19:59:14;5.55;;;2.53;;
50821;SDS011;36794;51.212;6.980;2022-07-12T20:01:40;4.60;;;2.10;;
50821;SDS011;36794;51.212;6.980;2022-07-12T20:04:06;4.78;;;2.05;;
50821;SDS011;36794;51.212;6.980;2022-07-12T20:06:33;4.13;;;2.05;;
50821;SDS011;36794;51.212;6.980;2022-07-12T20:08:59;3.65;;;2.30;;
50821;SDS011;36794;51.212;6.980;2022-07-12T20:11:25;5.70;;;2.47;;
50821;SDS011;36794;51.212;6.980;2022-07-12T20:13:51;5.25;;;2.50;;
50821;SDS011;36794;51.212;6.980;2022-07-12T20:16:18;4.70;;;2.72;;
50821;SDS011;36794;51.212;6.980;2022-07-12T20:18:44;5.63;;;2.30;;
50821;SDS011;36794;51.212;6.980;2022-07-12T20:21:11;4.20;;;2.53;;
50821;SDS011;36794;51.212;6.980;2022-07-12T20:23:37;6.13;;;2.53;;
50821;SDS011;36794;51.212;6.980;2022-07-12T20:26:03;5.40;;;2.72;;
50821;SDS011;36794;51.212;6.980;2022-07-12T20:28:29;7.53;;;2.95;;
50821;SDS011;36794;51.212;6.980;2022-07-12T20:30:55;5.85;;;3.17;;
50821;SDS011;36794;51.212;6.980;2022-07-12T20:33:21;4.47;;;2.67;;
